Time;durP1;ratioP1;P1;durP2;ratioP2;P2;SDS_P1;SDS_P2;PMS_P1;PMS_P2;Temp;Humidity;BMP_temperature;BMP_pressure;BME280_temperature;BME280_humidity;BME280_pressure;Samples;Min_cycle;Max_cycle;Signal;HPM_P1;HPM_P2
2023/03/23 00:01:19;;;;;;;9.10;5.68;;;;;;;-148.88;100.00;75109.00;5017821;28;20097;-86
2023/03/23 00:03:46;;;;;;;9.25;5.80;;;;;;;-148.88;100.00;75109.00;5035348;28;20032;-88
2023/03/23 00:06:16;;;;;;;7.78;5.25;;;;;;;-148.88;100.00;75102.91;5035702;28;20034;-88
2023/03/23 00:08:46;;;;;;;8.80;5.82;;;;;;;-148.88;100.00;75111.03;5018222;28;20554;-88
2023/03/23 00:11:18;;;;;;;10.88;6.22;;;;;;;-148.88;100.00;75111.03;5036351;28;20064;-86
2023/03/23 00:13:45;;;;;;;8.82;5.95;;;;;;;-148.88;100.00;75106.97;5017571;28;20075;-87
2023/03/23 00:16:17;;;;;;;9.93;6.00;;;;;;;-148.88;100.00;75119.16;5035290;28;20029;-87
2023/03/23 00:21:41;;;;;;;8.68;6.03;;;;;;;-148.88;100.00;75106.97;5025104;22;20060;-87
2023/03/23 00:24:18;;;;;;;11.68;6.07;;;;;;;-148.88;100.00;75106.97;5017119;28;20427;-87
2023/03/23 00:26:45;;;;;;;9.30;5.80;;;;;;;-148.88;100.00;75100.88;5034657;28;20035;-87
2023/03/23 00:29:21;;;;;;;11.43;6.00;;;;;;;-148.88;100.00;75109.00;5034701;28;20075;-87
2023/03/23 00:31:48;;;;;;;8.70;5.68;;;;;;;-148.88;100.00;75100.88;5034438;28;20025;-87
2023/03/23 00:34:24;;;;;;;9.10;5.60;;;;;;;-148.88;100.00;75106.97;5035248;28;20022;-88
2023/03/23 00:36:56;;;;;;;9.63;5.45;;;;;;;-148.88;100.00;75113.06;5016861;28;20432;-87
2023/03/23 00:39:25;;;;;;;8.98;5.72;;;;;;;-148.88;100.00;75104.94;5016712;28;20017;-87
2023/03/23 00:41:51;;;;;;;9.32;5.85;;;;;;;-148.88;100.00;75098.84;5016565;28;20029;-86
2023/03/23 00:44:17;;;;;;;9.75;5.28;;;;;;;-148.88;100.00;75094.81;5033771;28;20116;-86
2023/03/23 00:46:48;;;;;;;8.38;5.88;;;;;;;-148.88;100.00;75096.81;5034044;28;20021;-87
2023/03/23 00:49:15;;;;;;;10.20;3.78;;;;;;;-148.88;100.00;75094.81;5016077;28;20026;-87
2023/03/23 00:51:41;;;;;;;7.32;5.13;;;;;;;-148.88;100.00;75086.69;5033159;28;20390;-87
2023/03/23 00:54:08;;;;;;;8.48;5.78;;;;;;;-148.88;100.00;75090.72;5033875;28;20491;-88
2023/03/23 00:56:33;;;;;;;8.20;5.57;;;;;;;-148.88;100.00;75076.53;5033965;28;20036;-87
2023/03/23 00:58:58;;;;;;;7.35;3.78;;;;;;;-148.88;100.00;75090.72;5033828;28;20025;-87
2023/03/23 01:01:24;;;;;;;8.43;5.68;;;;;;;-148.88;100.00;75086.69;5033829;28;20097;-88
2023/03/23 01:03:49;;;;;;;8.63;5.57;;;;;;;-148.88;100.00;75076.53;5034072;28;20370;-88
2023/03/23 01:06:14;;;;;;;8.27;5.90;;;;;;;-148.88;100.00;75086.69;5033853;28;20395;-88
2023/03/23 01:08:46;;;;;;;9.27;5.35;;;;;;;-148.88;100.00;75080.59;5033994;28;20114;-88
2023/03/23 01:11:16;;;;;;;8.43;5.50;;;;;;;-148.88;100.00;75090.72;5016673;28;20028;-88
2023/03/23 01:13:42;;;;;;;8.25;4.40;;;;;;;-148.88;100.00;75076.53;5033596;28;20026;-88
2023/03/23 01:16:11;;;;;;;9.65;5.80;;;;;;;-148.88;100.00;75070.44;5033492;28;20033;-88
2023/03/23 01:18:38;;;;;;;9.52;5.25;;;;;;;-148.88;100.00;75066.38;5017504;28;20445;-89
2023/03/23 01:21:07;;;;;;;7.38;5.38;;;;;;;-148.88;100.00;75064.34;5033592;28;20025;-86
2023/03/23 01:23:34;;;;;;;10.18;5.18;;;;;;;-148.88;100.00;75062.31;5033506;28;20029;-87
2023/03/23 01:26:04;;;;;;;8.93;4.72;;;;;;;-148.88;100.00;75062.31;5033560;28;20037;-87
2023/03/23 01:28:29;;;;;;;5.85;4.50;;;;;;;-148.88;100.00;75062.31;5016035;28;20026;-87
2023/03/23 01:31:18;;;;;;;9.00;4.45;;;;;;;-148.88;100.00;75054.19;5015494;28;20032;-86
2023/03/23 01:33:44;;;;;;;6.40;4.55;;;;;;;-148.88;100.00;75039.97;5033626;28;20096;-88
2023/03/23 01:36:18;;;;;;;8.10;4.72;;;;;;;-148.88;100.00;75035.91;5033121;28;20057;-88
2023/03/23 01:38:45;;;;;;;7.47;4.38;;;;;;;-148.88;100.00;75033.88;5033117;28;20092;-88
2023/03/23 01:41:16;;;;;;;7.03;4.18;;;;;;;-148.88;100.00;75042.00;5033219;28;20026;-88
2023/03/23 01:44:16;;;;;;;7.03;4.43;;;;;;;-148.88;100.00;75025.75;5033909;28;20032;-88
2023/03/23 01:46:42;;;;;;;8.50;3.20;;;;;;;-148.88;100.00;75027.78;4991153;28;20041;-88
2023/03/23 01:49:13;;;;;;;7.22;4.00;;;;;;;-148.88;100.00;75017.63;5033274;28;20032;-87
2023/03/23 01:51:46;;;;;;;7.25;4.20;;;;;;;-148.88;100.00;75019.66;5033650;28;20025;-88
2023/03/23 01:54:14;;;;;;;10.80;4.47;;;;;;;-148.88;100.00;75019.66;5033054;28;20522;-88
2023/03/23 01:56:45;;;;;;;5.22;3.55;;;;;;;-148.88;100.00;75013.56;5032980;28;20440;-88
2023/03/23 01:59:11;;;;;;;5.72;3.83;;;;;;;-148.88;100.00;74995.28;5032956;28;20494;-88
2023/03/23 02:01:39;;;;;;;7.25;3.53;;;;;;;-148.88;100.00;75001.38;5033033;28;20029;-88
2023/03/23 02:04:05;;;;;;;6.60;2.72;;;;;;;-148.88;100.00;75007.47;5032729;28;20033;-88
2023/03/23 02:06:30;;;;;;;5.55;3.55;;;;;;;-148.88;100.00;75001.38;5015212;28;20037;-88
2023/03/23 02:08:57;;;;;;;8.02;4.05;;;;;;;-148.88;100.00;74987.16;5032870;28;20025;-88
2023/03/23 02:11:23;;;;;;;5.18;3.58;;;;;;;-148.88;100.00;74985.13;5032681;28;20025;-88
2023/03/23 02:13:49;;;;;;;5.30;3.38;;;;;;;-148.88;100.00;74991.22;5032946;28;20471;-87
2023/03/23 02:16:37;;;;;;;5.57;3.63;;;;;;;-148.88;100.00;74958.72;5032765;28;20033;-88
2023/03/23 02:19:18;;;;;;;4.35;3.42;;;;;;;-148.88;100.00;74974.97;5033168;28;20013;-88
2023/03/23 02:21:59;;;;;;;5.57;3.45;;;;;;;-148.88;100.00;74960.75;5014888;28;20060;-87
2023/03/23 02:24:58;;;;;;;4.90;2.95;;;;;;;-148.88;100.00;74956.69;5032563;28;20026;-87
2023/03/23 02:27:59;;;;;;;4.93;3.15;;;;;;;-148.88;100.00;74966.84;5015681;28;20033;-87
2023/03/23 02:30:38;;;;;;;6.25;3.50;;;;;;;-148.88;100.00;74958.72;4971754;28;20026;-88
2023/03/23 02:33:24;;;;;;;6.05;3.42;;;;;;;-148.88;100.00;74952.63;5025970;28;20036;-88
2023/03/23 02:35:59;;;;;;;8.00;3.50;;;;;;;-148.88;100.00;74946.53;5014912;28;20025;-86
2023/03/23 02:38:55;;;;;;;4.75;3.40;;;;;;;-148.88;100.00;74950.59;5032624;28;20384;-87
2023/03/23 02:41:26;;;;;;;5.10;2.70;;;;;;;-148.88;100.00;74924.22;5032279;28;20108;-86
2023/03/23 02:43:53;;;;;;;9.40;3.05;;;;;;;-148.88;100.00;74936.41;5015377;28;20025;-86
2023/03/23 02:46:21;;;;;;;5.30;3.10;;;;;;;-148.88;100.00;74934.38;5033138;28;20504;-86
2023/03/23 02:48:50;;;;;;;5.28;3.28;;;;;;;-148.88;100.00;74940.47;5032285;28;20033;-87
2023/03/23 02:51:19;;;;;;;6.22;2.85;;;;;;;-148.88;100.00;74920.16;5032440;28;20017;-87
2023/03/23 02:53:49;;;;;;;4.25;2.63;;;;;;;-148.88;100.00;74928.28;5032430;28;20487;-88
2023/03/23 02:56:16;;;;;;;4.05;2.55;;;;;;;-148.88;100.00;74920.16;5032631;28;20025;-85
2023/03/23 02:58:42;;;;;;;4.70;2.10;;;;;;;-148.88;100.00;74905.94;5032105;28;20026;-86
2023/03/23 03:01:25;;;;;;;4.78;2.25;;;;;;;-148.88;100.00;74922.19;5014849;28;20440;-87
2023/03/23 03:03:52;;;;;;;3.60;1.90;;;;;;;-148.88;100.00;74916.09;5032519;28;20095;-85
2023/03/23 03:06:30;;;;;;;4.28;1.80;;;;;;;-148.88;100.00;74907.97;5016828;28;20044;-86
2023/03/23 03:09:07;;;;;;;3.58;1.90;;;;;;;-148.88;100.00;74901.88;5014581;28;20032;-85
2023/03/23 03:11:36;;;;;;;3.28;1.90;;;;;;;-148.88;100.00;74899.84;5014505;28;20030;-87
2023/03/23 03:14:10;;;;;;;3.40;2.05;;;;;;;-148.88;100.00;74910.00;5014917;28;20025;-85
2023/03/23 03:16:43;;;;;;;3.70;2.15;;;;;;;-148.88;100.00;74903.91;5036113;28;20463;-86
2023/03/23 03:19:25;;;;;;;4.80;2.28;;;;;;;-148.88;100.00;74895.78;5036080;28;20189;-87
2023/03/23 03:21:55;;;;;;;4.13;1.95;;;;;;;-148.88;100.00;74916.09;5035504;28;20041;-87
2023/03/23 03:24:23;;;;;;;5.53;2.03;;;;;;;-148.88;100.00;74918.13;5017936;28;20476;-86
2023/03/23 03:26:57;;;;;;;3.72;2.05;;;;;;;-148.88;100.00;74916.09;5035640;28;20037;-84
2023/03/23 03:29:29;;;;;;;3.65;1.90;;;;;;;-148.88;100.00;74905.94;5002243;28;20446;-86
2023/03/23 03:31:58;;;;;;;4.55;1.98;;;;;;;-148.88;100.00;74922.19;5018949;28;20037;-88
2023/03/23 03:34:24;;;;;;;3.30;1.88;;;;;;;-148.88;100.00;74924.22;5035300;28;20097;-85
2023/03/23 03:36:54;;;;;;;3.63;2.00;;;;;;;-148.88;100.00;74916.09;5017566;28;20094;-86
2023/03/23 03:39:20;;;;;;;4.15;2.03;;;;;;;-148.88;100.00;74916.09;5035295;28;20033;-87
2023/03/23 03:41:48;;;;;;;3.65;1.90;;;;;;;-148.88;100.00;74905.94;5035604;28;20028;-87
2023/03/23 03:44:15;;;;;;;4.72;1.98;;;;;;;-148.88;100.00;74895.78;5017515;28;20369;-86
2023/03/23 03:46:42;;;;;;;3.50;1.98;;;;;;;-148.88;100.00;74903.91;5017343;28;20040;-87
2023/03/23 03:49:13;;;;;;;3.38;1.80;;;;;;;-148.88;100.00;74891.72;5035295;28;20471;-86
2023/03/23 03:51:40;;;;;;;4.28;1.75;;;;;;;-148.88;100.00;74903.91;5035146;28;20026;-87
2023/03/23 03:54:06;;;;;;;4.13;1.83;;;;;;;-148.88;100.00;74903.91;5035300;28;20083;-86
2023/03/23 03:56:35;;;;;;;3.20;1.80;;;;;;;-148.88;100.00;74905.94;5035364;28;20534;-87
2023/03/23 03:59:03;;;;;;;3.35;1.63;;;;;;;-148.88;100.00;74899.84;5017152;28;20013;-85
2023/03/23 04:01:29;;;;;;;3.22;1.55;;;;;;;-148.88;100.00;74895.78;5018002;28;20033;-87
2023/03/23 04:03:56;;;;;;;4.00;1.92;;;;;;;-148.88;100.00;74897.81;5035552;28;20060;-85
2023/03/23 04:06:23;;;;;;;2.67;1.58;;;;;;;-148.88;100.00;74899.84;5035461;28;20041;-87
2023/03/23 04:08:49;;;;;;;3.75;1.63;;;;;;;-148.88;100.00;74903.91;5017309;28;20507;-86
2023/03/23 04:11:15;;;;;;;3.08;2.00;;;;;;;-148.88;100.00;74891.72;5034692;28;20025;-86
2023/03/23 04:13:41;;;;;;;5.45;1.98;;;;;;;-148.88;100.00;74889.69;5034871;28;20395;-86
2023/03/23 04:16:07;;;;;;;4.85;1.90;;;;;;;-148.88;100.00;74889.69;5034696;28;20175;-87
2023/03/23 04:18:33;;;;;;;4.45;1.98;;;;;;;-148.88;100.00;74905.94;5034571;28;20407;-86
2023/03/23 04:21:00;;;;;;;2.47;1.80;;;;;;;-148.88;100.00;74918.13;5034475;28;20064;-88
2023/03/23 04:23:30;;;;;;;3.95;2.00;;;;;;;-148.88;100.00;74920.16;5016654;28;20391;-88
2023/03/23 04:25:56;;;;;;;3.10;2.00;;;;;;;-148.88;100.00;74912.03;5033477;28;20099;-87
2023/03/23 04:28:23;;;;;;;3.20;2.13;;;;;;;-148.88;100.00;74914.06;5034284;28;20029;-87
2023/03/23 04:30:52;;;;;;;2.15;1.63;;;;;;;-148.88;100.00;74916.09;5016548;28;20021;-86
2023/03/23 04:33:18;;;;;;;3.30;1.92;;;;;;;-148.88;100.00;74916.09;5034600;28;20369;-87
2023/03/23 04:35:45;;;;;;;3.53;2.13;;;;;;;-148.88;100.00;74926.25;5034519;28;20032;-84
2023/03/23 04:38:11;;;;;;;4.80;2.10;;;;;;;-148.88;100.00;74924.22;5035093;28;20025;-85
2023/03/23 04:40:38;;;;;;;3.40;2.08;;;;;;;-148.88;100.00;74928.28;5034936;28;20104;-85
2023/03/23 04:43:05;;;;;;;3.00;1.80;;;;;;;-148.88;100.00;74928.28;5034788;28;20032;-83
2023/03/23 04:45:32;;;;;;;4.80;1.92;;;;;;;-148.88;100.00;74924.22;5034982;28;20372;-84
2023/03/23 04:47:58;;;;;;;2.33;1.75;;;;;;;-148.88;100.00;74920.16;5034341;28;20029;-84
2023/03/23 04:50:30;;;;;;;3.95;2.22;;;;;;;-148.88;100.00;74928.28;5017607;28;20074;-83
2023/03/23 04:53:00;;;;;;;3.00;2.10;;;;;;;-148.88;100.00;74928.28;5035397;28;20021;-84
2023/03/23 04:55:26;;;;;;;3.40;1.80;;;;;;;-148.88;100.00;74924.22;5037919;28;20025;-84
2023/03/23 04:57:52;;;;;;;4.32;2.03;;;;;;;-148.88;100.00;74920.16;5017776;28;20024;-84
2023/03/23 05:00:18;;;;;;;3.38;2.17;;;;;;;-148.88;100.00;74924.22;5034355;28;20037;-84
2023/03/23 05:02:46;;;;;;;3.20;1.80;;;;;;;-148.88;100.00;74922.19;5035542;28;20025;-84
2023/03/23 05:05:16;;;;;;;3.83;2.03;;;;;;;-148.88;100.00;74912.03;5035477;28;20500;-84
2023/03/23 05:07:41;;;;;;;3.65;2.15;;;;;;;-148.88;100.00;74916.09;5034751;28;20036;-84
2023/03/23 05:10:11;;;;;;;3.70;2.10;;;;;;;-148.88;100.00;74912.03;5016277;28;20017;-86
2023/03/23 05:12:37;;;;;;;3.72;1.98;;;;;;;-148.88;100.00;74910.00;5033968;28;20030;-85
2023/03/23 05:15:03;;;;;;;3.90;2.08;;;;;;;-148.88;100.00;74916.09;5016480;28;20083;-85
2023/03/23 05:17:34;;;;;;;2.25;1.40;;;;;;;-148.88;100.00;74907.97;5016055;28;20083;-85
2023/03/23 05:20:03;;;;;;;3.65;2.10;;;;;;;-148.88;100.00;74912.03;5034364;28;20029;-85
2023/03/23 05:22:28;;;;;;;5.13;2.10;;;;;;;-148.88;100.00;74899.84;5015949;28;20036;-86
2023/03/23 05:24:54;;;;;;;3.90;2.08;;;;;;;-148.88;100.00;74893.75;5033273;28;20026;-84
2023/03/23 05:27:19;;;;;;;3.28;2.10;;;;;;;-148.88;100.00;74893.75;5033653;28;20029;-85
2023/03/23 05:29:48;;;;;;;3.78;2.00;;;;;;;-148.88;100.00;74895.78;5015524;28;20032;-83
2023/03/23 05:32:13;;;;;;;3.92;2.05;;;;;;;-148.88;100.00;74895.78;5016156;28;20116;-85
2023/03/23 05:34:39;;;;;;;4.05;2.00;;;;;;;-148.88;100.00;74910.00;5033548;28;20071;-85
2023/03/23 05:37:04;;;;;;;4.00;2.05;;;;;;;-148.88;100.00;74905.94;5015211;28;20065;-85
2023/03/23 05:39:31;;;;;;;3.00;2.00;;;;;;;-148.88;100.00;74895.78;5015907;28;20025;-84
2023/03/23 05:41:56;;;;;;;3.92;2.10;;;;;;;-148.88;100.00;74893.75;5033397;28;20055;-84
2023/03/23 05:44:21;;;;;;;3.53;2.08;;;;;;;-148.88;100.00;74893.75;5033187;28;20033;-84
2023/03/23 05:46:47;;;;;;;3.65;2.00;;;;;;;-148.88;100.00;74903.91;5015419;28;20044;-84
2023/03/23 05:49:16;;;;;;;2.95;1.98;;;;;;;-148.88;100.00;74901.88;5033287;28;20072;-85
2023/03/23 05:51:49;;;;;;;3.72;2.40;;;;;;;-148.88;100.00;74912.03;5033396;28;20037;-84
2023/03/23 05:54:15;;;;;;;3.00;2.03;;;;;;;-148.88;100.00;74912.03;5034074;28;20487;-84
2023/03/23 05:56:40;;;;;;;5.32;2.42;;;;;;;-148.88;100.00;74916.09;5015655;28;20120;-84
2023/03/23 05:59:06;;;;;;;4.25;2.13;;;;;;;-148.88;100.00;74912.03;5033297;28;20111;-85
2023/03/23 06:01:32;;;;;;;5.72;2.53;;;;;;;-148.88;100.00;74914.06;5033075;28;20530;-84
2023/03/23 06:03:58;;;;;;;3.80;2.20;;;;;;;-148.88;100.00;74914.06;5033193;28;20021;-85
2023/03/23 06:06:29;;;;;;;5.13;2.10;;;;;;;-148.88;100.00;74916.09;5033539;28;20123;-84
2023/03/23 06:08:56;;;;;;;4.50;2.17;;;;;;;-148.88;100.00;74916.09;5032554;28;20065;-84
2023/03/23 06:11:24;;;;;;;4.03;2.20;;;;;;;-148.88;100.00;74916.09;5032738;28;20036;-84
2023/03/23 06:13:49;;;;;;;3.97;2.35;;;;;;;-148.88;100.00;74920.16;5015417;28;20025;-85
2023/03/23 06:16:14;;;;;;;4.78;2.13;;;;;;;-148.88;100.00;74907.97;5032788;28;20108;-84
2023/03/23 06:18:40;;;;;;;4.10;2.30;;;;;;;-148.88;100.00;74891.72;5032975;28;20492;-84
2023/03/23 06:21:07;;;;;;;3.33;2.20;;;;;;;-148.88;100.00;74889.69;5032746;28;20048;-85
2023/03/23 06:23:33;;;;;;;3.55;2.20;;;;;;;-148.88;100.00;74893.75;5032498;28;20021;-86
2023/03/23 06:26:05;;;;;;;3.92;2.17;;;;;;;-148.88;100.00;74907.97;5032593;28;20167;-85
2023/03/23 06:28:31;;;;;;;3.42;1.98;;;;;;;-148.88;100.00;74903.91;5012333;28;20033;-85
2023/03/23 06:31:00;;;;;;;4.32;2.10;;;;;;;-148.88;100.00;74903.91;5033009;28;20024;-85
2023/03/23 06:33:25;;;;;;;5.18;2.40;;;;;;;-148.88;100.00;74903.91;5032959;28;20067;-86
2023/03/23 06:35:52;;;;;;;3.40;2.20;;;;;;;-148.88;100.00;74903.91;5033044;28;20025;-85
2023/03/23 06:38:20;;;;;;;5.07;1.73;;;;;;;-148.88;100.00;74891.72;5015586;28;20021;-85
2023/03/23 06:40:46;;;;;;;3.50;1.98;;;;;;;-148.88;100.00;74887.66;5033219;28;20091;-85
2023/03/23 06:43:13;;;;;;;4.47;2.10;;;;;;;-148.88;100.00;74899.84;5034646;28;20025;-86
2023/03/23 06:45:39;;;;;;;3.33;2.00;;;;;;;-148.88;100.00;74889.69;5032959;28;20021;-83
2023/03/23 06:48:05;;;;;;;5.55;2.30;;;;;;;-148.88;100.00;74879.53;5032195;28;20057;-84
2023/03/23 06:50:31;;;;;;;3.78;2.30;;;;;;;-148.88;100.00;74871.41;5016936;28;20026;-86
2023/03/23 06:52:57;;;;;;;3.78;2.08;;;;;;;-148.88;100.00;74873.44;5036294;28;20028;-84
2023/03/23 06:55:22;;;;;;;4.30;2.30;;;;;;;-148.88;100.00;74865.31;5036067;28;20398;-84
2023/03/23 06:57:47;;;;;;;3.58;2.20;;;;;;;-148.88;100.00;74867.34;5036272;28;20179;-85
2023/03/23 07:00:13;;;;;;;3.53;1.90;;;;;;;-148.88;100.00;74859.22;5035793;28;20032;-84
2023/03/23 07:02:40;;;;;;;3.58;2.30;;;;;;;-148.88;100.00;74861.25;5035677;28;20032;-85
2023/03/23 07:05:08;;;;;;;3.00;1.95;;;;;;;-148.88;100.00;74863.28;5036259;28;20030;-86
2023/03/23 07:07:35;;;;;;;3.88;2.25;;;;;;;-148.88;100.00;74861.25;5035818;28;20075;-84
2023/03/23 07:10:03;;;;;;;5.43;2.53;;;;;;;-148.88;100.00;74861.25;5035714;28;20655;-85
2023/03/23 07:12:28;;;;;;;5.65;2.20;;;;;;;-148.88;100.00;74863.28;5035746;28;20483;-86
2023/03/23 07:14:55;;;;;;;4.70;2.53;;;;;;;-148.88;100.00;74847.03;5035878;28;20030;-85
2023/03/23 07:17:22;;;;;;;5.43;2.30;;;;;;;-148.88;100.00;74840.94;5035110;28;20101;-85
2023/03/23 07:19:48;;;;;;;6.47;2.45;;;;;;;-148.88;100.00;74834.84;5035335;28;20391;-86
2023/03/23 07:22:14;;;;;;;3.47;1.98;;;;;;;-148.88;99.69;74830.78;5035364;28;20028;-84
2023/03/23 07:24:39;;;;;;;5.15;1.98;;;;;;;-148.88;100.00;74834.84;5035958;28;20037;-83
2023/03/23 07:27:05;;;;;;;3.72;2.20;;;;;;;-148.88;100.00;74826.72;5035644;28;20510;-85
2023/03/23 07:29:30;;;;;;;8.70;4.30;;;;;;;-148.88;100.00;74822.66;5035689;28;20064;-85
2023/03/23 07:31:56;;;;;;;6.57;2.60;;;;;;;-148.88;99.37;74816.56;5017746;28;20400;-84
2023/03/23 07:34:22;;;;;;;3.63;2.35;;;;;;;-148.88;99.78;74806.44;5035536;28;20104;-85
2023/03/23 07:36:49;;;;;;;3.78;2.05;;;;;;;-148.88;98.79;74802.38;5035606;28;20541;-85
2023/03/23 07:39:15;;;;;;;3.75;2.30;;;;;;;-148.88;98.87;74790.19;5035142;28;20071;-85
2023/03/23 07:41:41;;;;;;;4.95;2.20;;;;;;;-148.88;99.13;74810.50;5017698;28;20492;-86
2023/03/23 07:44:07;;;;;;;4.60;2.22;;;;;;;-148.88;97.24;74796.28;5035659;28;20034;-86
2023/03/23 07:46:32;;;;;;;5.65;2.38;;;;;;;-148.88;98.24;74808.47;5035305;28;20026;-85
2023/03/23 07:48:58;;;;;;;4.30;2.40;;;;;;;-148.88;98.11;74794.25;5035005;28;20021;-86
2023/03/23 07:51:24;;;;;;;5.00;2.13;;;;;;;-148.88;97.63;74796.28;5034948;28;20028;-85
2023/03/23 07:53:51;;;;;;;4.40;2.30;;;;;;;-148.88;98.14;74810.50;5017010;28;20101;-85
2023/03/23 07:56:19;;;;;;;4.00;2.35;;;;;;;-148.88;97.81;74806.44;5034751;28;20091;-86
2023/03/23 07:58:45;;;;;;;5.38;2.53;;;;;;;-148.88;97.73;74796.28;5034720;28;20094;-85
2023/03/23 08:01:12;;;;;;;4.22;2.38;;;;;;;-148.88;98.47;74802.38;5034196;28;20511;-86
2023/03/23 08:03:37;;;;;;;4.65;2.53;;;;;;;-148.88;97.78;74802.38;5016823;28;20029;-87
2023/03/23 08:06:03;;;;;;;3.70;2.28;;;;;;;-148.88;98.63;74794.25;5034471;28;20030;-84
2023/03/23 08:08:30;;;;;;;5.45;2.80;;;;;;;-148.88;97.73;74806.44;5034554;28;20243;-84
2023/03/23 08:10:55;;;;;;;7.18;2.42;;;;;;;-148.88;98.32;74802.38;5016790;28;20029;-87
2023/03/23 08:13:22;;;;;;;4.88;2.50;;;;;;;-148.88;98.74;74794.25;5034341;28;20393;-85
2023/03/23 08:15:48;;;;;;;4.40;2.55;;;;;;;-148.88;98.14;74794.25;5034422;28;20420;-86
2023/03/23 08:18:14;;;;;;;6.60;2.45;;;;;;;-148.88;98.22;74802.38;5034684;28;20566;-85
2023/03/23 08:20:40;;;;;;;4.20;2.17;;;;;;;-148.88;98.22;74794.25;5034211;28;20044;-84
2023/03/23 08:23:06;;;;;;;4.20;2.40;;;;;;;-148.88;98.52;74798.31;5034778;28;20028;-85
2023/03/23 08:25:37;;;;;;;5.47;2.58;;;;;;;-148.88;98.07;74806.44;5034858;28;20105;-87
2023/03/23 08:28:04;;;;;;;4.97;2.45;;;;;;;-148.88;98.79;74802.38;5034397;28;20052;-85
2023/03/23 08:30:32;;;;;;;5.45;2.45;;;;;;;-148.88;98.58;74798.31;5034315;28;20057;-84
2023/03/23 08:32:58;;;;;;;6.28;2.40;;;;;;;-148.88;98.79;74802.38;5035800;28;20017;-85
2023/03/23 08:35:24;;;;;;;5.15;2.70;;;;;;;-148.88;98.46;74798.31;5034113;28;20487;-85
2023/03/23 08:38:10;;;;;;;5.15;2.58;;;;;;;-148.88;98.11;74796.28;5034257;28;20089;-85
2023/03/23 08:40:35;;;;;;;6.38;2.53;;;;;;;-148.88;98.06;74796.28;5034548;28;20032;-85
2023/03/23 08:43:01;;;;;;;5.95;2.70;;;;;;;-148.88;97.80;74810.50;5033866;28;20025;-86
2023/03/23 08:45:27;;;;;;;6.32;3.10;;;;;;;-148.88;98.38;74806.44;5034133;28;20025;-84
2023/03/23 08:47:53;;;;;;;7.68;3.28;;;;;;;-148.88;98.75;74814.53;5033675;28;20021;-85
2023/03/23 08:50:22;;;;;;;5.60;2.85;;;;;;;-148.88;97.69;74814.53;5016307;28;20052;-85
2023/03/23 08:52:49;;;;;;;5.40;2.40;;;;;;;-148.88;97.62;74810.50;5016257;28;20030;-86
2023/03/23 08:55:19;;;;;;;4.72;2.53;;;;;;;-148.88;98.70;74824.69;5033757;28;20045;-84
2023/03/23 08:57:45;;;;;;;6.60;2.80;;;;;;;-148.88;98.19;74810.50;5033663;28;20120;-85
2023/03/23 09:00:17;;;;;;;4.72;2.22;;;;;;;-148.88;96.98;74814.53;5033706;28;20380;-84
2023/03/23 09:02:47;;;;;;;7.13;2.90;;;;;;;-148.88;97.05;74802.38;5016444;28;20072;-86
2023/03/23 09:05:14;;;;;;;7.18;2.70;;;;;;;-148.88;97.42;74798.31;5016351;28;20025;-85
2023/03/23 09:07:41;;;;;;;3.80;2.30;;;;;;;-148.88;96.50;74790.19;5033922;28;20071;-86
2023/03/23 09:10:08;;;;;;;5.40;2.95;;;;;;;-148.88;95.79;74790.19;5034124;28;20032;-86
2023/03/23 09:12:35;;;;;;;6.28;2.75;;;;;;;-148.88;95.18;74786.13;5032866;28;20025;-86
2023/03/23 09:15:05;;;;;;;4.97;2.60;;;;;;;-148.88;96.28;74780.03;5033450;28;20040;-86
2023/03/23 09:17:32;;;;;;;6.47;2.47;;;;;;;-148.88;96.11;74798.31;5033322;28;20032;-84
2023/03/23 09:19:58;;;;;;;7.18;2.63;;;;;;;-148.88;97.21;74812.53;5033254;28;20383;-84
2023/03/23 09:22:24;;;;;;;8.35;2.67;;;;;;;-148.88;96.94;74816.56;5034568;28;20096;-87
2023/03/23 09:24:52;;;;;;;6.82;2.90;;;;;;;-148.88;96.64;74804.41;5034025;28;20409;-87
2023/03/23 09:27:17;;;;;;;7.60;2.67;;;;;;;-148.88;96.53;74794.25;5033931;28;20022;-86
2023/03/23 09:29:44;;;;;;;6.07;2.45;;;;;;;-148.88;94.90;74786.13;5033270;28;20029;-85
2023/03/23 09:32:09;;;;;;;7.10;2.90;;;;;;;-148.88;92.71;74800.34;5032969;28;20029;-84
2023/03/23 09:34:38;;;;;;;6.57;2.65;;;;;;;-148.88;92.60;74810.50;5033224;28;20391;-86
2023/03/23 09:37:04;;;;;;;5.78;2.60;;;;;;;-148.88;94.29;74814.53;5033072;28;20021;-87
2023/03/23 09:39:30;;;;;;;5.50;2.40;;;;;;;-148.88;92.33;74818.59;5013471;28;20029;-88
2023/03/23 09:42:05;;;;;;;7.65;2.70;;;;;;;-148.88;93.92;74806.44;5015178;28;20029;-83
2023/03/23 09:44:45;;;;;;;6.35;2.60;;;;;;;-148.88;92.24;74818.59;5014967;28;20036;-84
2023/03/23 09:47:31;;;;;;;5.43;2.83;;;;;;;-148.88;92.92;74814.53;5032308;28;20052;-84
2023/03/23 09:50:02;;;;;;;5.75;2.20;;;;;;;-148.88;93.01;74822.66;5015176;28;20032;-85
2023/03/23 09:52:44;;;;;;;7.10;2.40;;;;;;;-148.88;92.46;74830.78;5015264;28;20041;-87
2023/03/23 09:55:14;;;;;;;5.30;2.22;;;;;;;-148.88;93.84;74826.72;5015988;28;20484;-85
2023/03/23 09:57:47;;;;;;;6.22;2.75;;;;;;;-148.88;94.74;74838.91;5014922;28;20079;-86
2023/03/23 10:00:24;;;;;;;8.25;3.13;;;;;;;-148.88;97.50;74855.16;5032561;28;20025;-87
2023/03/23 10:03:04;;;;;;;6.43;2.80;;;;;;;-148.88;97.66;74855.16;5032697;28;20412;-87
2023/03/23 10:05:32;;;;;;;6.43;2.42;;;;;;;-148.88;96.18;74842.97;5014753;28;20030;-86
2023/03/23 10:07:59;;;;;;;6.57;2.53;;;;;;;-148.88;95.60;74834.84;5032860;28;20029;-84
2023/03/23 10:10:32;;;;;;;8.38;2.67;;;;;;;-148.88;95.31;74847.03;5032595;28;20102;-85
2023/03/23 10:13:07;;;;;;;6.90;3.13;;;;;;;-148.88;100.00;74871.41;5032738;28;20104;-86
2023/03/23 10:15:36;;;;;;;9.70;2.97;;;;;;;-148.88;100.00;74891.72;5033078;28;20068;-85
2023/03/23 10:18:07;;;;;;;6.78;3.00;;;;;;;-148.88;100.00;74924.22;5032754;28;20040;-84
2023/03/23 10:20:35;;;;;;;8.88;3.28;;;;;;;-148.88;100.00;74954.66;5015547;28;20030;-85
2023/03/23 10:23:12;;;;;;;8.05;3.50;;;;;;;-148.88;100.00;74932.34;5015589;28;20079;-86
2023/03/23 10:25:41;;;;;;;11.07;3.80;;;;;;;-148.88;100.00;74914.06;5036816;28;20024;-85
2023/03/23 10:28:20;;;;;;;6.75;3.30;;;;;;;-148.88;100.00;74916.09;5036407;28;20476;-86
2023/03/23 10:30:53;;;;;;;10.70;3.78;;;;;;;-148.88;100.00;74936.41;5036486;28;20434;-86
2023/03/23 10:33:30;;;;;;;8.60;3.67;;;;;;;-148.88;100.00;74922.19;5036405;28;20467;-86
2023/03/23 10:36:01;;;;;;;10.38;4.03;;;;;;;-148.88;100.00;74907.97;5036674;28;20029;-86
2023/03/23 10:38:34;;;;;;;7.72;3.88;;;;;;;-148.88;100.00;74903.91;5036405;28;20018;-86
2023/03/23 10:41:09;;;;;;;6.88;3.67;;;;;;;-148.88;100.00;74883.59;5036477;28;20028;-87
2023/03/23 10:43:35;;;;;;;10.30;3.55;;;;;;;-148.88;100.00;74873.44;5036252;28;20112;-86
2023/03/23 10:46:10;;;;;;;7.03;3.67;;;;;;;-148.88;100.00;74879.53;5036279;28;20122;-84
2023/03/23 10:48:38;;;;;;;8.88;3.67;;;;;;;-148.88;100.00;74920.16;5036643;28;20166;-84
2023/03/23 10:51:09;;;;;;;10.52;4.22;;;;;;;-148.88;100.00;74989.19;5036233;28;20083;-87
2023/03/23 10:53:43;;;;;;;7.95;2.80;;;;;;;-148.88;100.00;75044.03;5036097;28;20021;-85
2023/03/23 10:56:23;;;;;;;4.38;1.98;;;;;;;-148.88;100.00;75076.53;5036586;28;20021;-85
2023/03/23 10:58:49;;;;;;;4.25;1.80;;;;;;;-148.88;100.00;75088.72;5018144;28;20032;-86
2023/03/23 11:01:17;;;;;;;4.43;2.00;;;;;;;-148.88;100.00;75104.94;5035949;28;20030;-86
2023/03/23 11:03:48;;;;;;;4.63;1.50;;;;;;;-148.88;100.00;75102.91;5035728;28;20025;-86
2023/03/23 11:06:22;;;;;;;4.43;1.73;;;;;;;-148.88;100.00;75094.81;5036042;28;20480;-88
2023/03/23 11:08:54;;;;;;;3.25;1.50;;;;;;;-148.88;100.00;75094.81;5036278;28;20021;-86
2023/03/23 11:11:25;;;;;;;5.45;2.38;;;;;;;-148.88;100.00;75094.81;5035919;28;20032;-86
2023/03/23 11:14:12;;;;;;;4.18;2.00;;;;;;;-148.88;100.00;75115.09;5035855;28;20071;-86
2023/03/23 11:16:44;;;;;;;4.05;1.70;;;;;;;-148.88;100.00;75123.22;5036480;28;20039;-85
2023/03/23 11:19:21;;;;;;;3.78;1.27;;;;;;;-148.88;100.00;75139.47;5035649;28;20021;-85
2023/03/23 11:21:55;;;;;;;3.35;1.10;;;;;;;-148.88;100.00;75143.53;5035563;28;20093;-86
2023/03/23 11:24:24;;;;;;;1.42;0.70;;;;;;;-148.88;100.00;75163.84;5017747;28;20029;-86